sensor_id;sensor_type;location;lat;lon;timestamp;temperature;humidity
53274;DHT22;39163;52.696;6.758;2024-01-15T00:00:09;1.30;99.90
53274;DHT22;39163;52.696;6.758;2024-01-15T00:02:37;1.30;99.90
53274;DHT22;39163;52.696;6.758;2024-01-15T00:05:05;1.30;99.90
53274;DHT22;39163;52.696;6.758;2024-01-15T00:07:32;1.30;99.90
53274;DHT22;39163;52.696;6.758;2024-01-15T00:09:59;1.30;99.90
53274;DHT22;39163;52.696;6.758;2024-01-15T00:12:26;1.30;99.90
53274;DHT22;39163;52.696;6.758;2024-01-15T00:14:53;1.30;99.90
53274;DHT22;39163;52.696;6.758;2024-01-15T00:17:20;1.30;99.90
53274;DHT22;39163;52.696;6.758;2024-01-15T00:19:48;1.30;99.90
53274;DHT22;39163;52.696;6.758;2024-01-15T00:22:15;1.30;99.90
53274;DHT22;39163;52.696;6.758;2024-01-15T00:24:42;1.30;99.90
53274;DHT22;39163;52.696;6.758;2024-01-15T00:27:09;1.30;99.90
53274;DHT22;39163;52.696;6.758;2024-01-15T00:29:36;1.30;99.90
53274;DHT22;39163;52.696;6.758;2024-01-15T00:32:03;1.30;99.90
53274;DHT22;39163;52.696;6.758;2024-01-15T00:34:30;1.30;99.90
53274;DHT22;39163;52.696;6.758;2024-01-15T00:36:59;1.30;99.90
53274;DHT22;39163;52.696;6.758;2024-01-15T00:39:26;1.30;99.90
53274;DHT22;39163;52.696;6.758;2024-01-15T00:41:53;1.30;99.90
53274;DHT22;39163;52.696;6.758;2024-01-15T00:44:20;1.30;99.90
53274;DHT22;39163;52.696;6.758;2024-01-15T00:46:47;1.30;99.90
53274;DHT22;39163;52.696;6.758;2024-01-15T00:49:14;1.30;99.90
53274;DHT22;39163;52.696;6.758;2024-01-15T00:51:41;1.30;99.90
53274;DHT22;39163;52.696;6.758;2024-01-15T00:54:10;1.30;99.90
53274;DHT22;39163;52.696;6.758;2024-01-15T00:56:37;1.30;99.90
53274;DHT22;39163;52.696;6.758;2024-01-15T00:59:04;1.30;99.90
53274;DHT22;39163;52.696;6.758;2024-01-15T01:01:31;1.30;99.90
53274;DHT22;39163;52.696;6.758;2024-01-15T01:03:58;1.30;99.90
53274;DHT22;39163;52.696;6.758;2024-01-15T01:06:25;1.30;99.90
53274;DHT22;39163;52.696;6.758;2024-01-15T01:08:52;1.20;99.90
53274;DHT22;39163;52.696;6.758;2024-01-15T01:11:19;1.20;99.90
53274;DHT22;39163;52.696;6.758;2024-01-15T01:13:46;1.20;99.90
53274;DHT22;39163;52.696;6.758;2024-01-15T01:16:13;1.30;99.90
53274;DHT22;39163;52.696;6.758;2024-01-15T01:18:40;1.30;99.90
53274;DHT22;39163;52.696;6.758;2024-01-15T01:21:07;1.30;99.90
53274;DHT22;39163;52.696;6.758;2024-01-15T01:23:34;1.40;99.90
53274;DHT22;39163;52.696;6.758;2024-01-15T01:26:01;1.40;99.90
53274;DHT22;39163;52.696;6.758;2024-01-15T01:28:29;1.50;99.90
53274;DHT22;39163;52.696;6.758;2024-01-15T01:30:57;1.50;99.90
53274;DHT22;39163;52.696;6.758;2024-01-15T01:33:24;1.50;99.90
53274;DHT22;39163;52.696;6.758;2024-01-15T01:35:51;1.50;99.90
53274;DHT22;39163;52.696;6.758;2024-01-15T01:38:18;1.60;99.90
53274;DHT22;39163;52.696;6.758;2024-01-15T01:40:45;1.60;99.90
53274;DHT22;39163;52.696;6.758;2024-01-15T01:43:12;1.60;99.90
53274;DHT22;39163;52.696;6.758;2024-01-15T01:45:41;1.60;99.90
53274;DHT22;39163;52.696;6.758;2024-01-15T01:48:08;1.60;99.90
53274;DHT22;39163;52.696;6.758;2024-01-15T01:50:35;1.70;99.90
53274;DHT22;39163;52.696;6.758;2024-01-15T01:53:02;1.70;99.90
53274;DHT22;39163;52.696;6.758;2024-01-15T01:55:31;1.70;99.90
53274;DHT22;39163;52.696;6.758;2024-01-15T01:57:59;1.70;99.90
53274;DHT22;39163;52.696;6.758;2024-01-15T02:00:27;1.70;99.90
53274;DHT22;39163;52.696;6.758;2024-01-15T02:02:55;1.70;99.90
53274;DHT22;39163;52.696;6.758;2024-01-15T02:05:22;1.70;99.90
53274;DHT22;39163;52.696;6.758;2024-01-15T02:07:49;1.60;99.90
53274;DHT22;39163;52.696;6.758;2024-01-15T02:10:16;1.60;99.90
53274;DHT22;39163;52.696;6.758;2024-01-15T02:12:44;1.50;99.90
53274;DHT22;39163;52.696;6.758;2024-01-15T02:15:11;1.40;99.90
53274;DHT22;39163;52.696;6.758;2024-01-15T02:17:58;1.40;99.90
53274;DHT22;39163;52.696;6.758;2024-01-15T02:20:25;1.30;99.90
53274;DHT22;39163;52.696;6.758;2024-01-15T02:22:52;1.30;99.90
53274;DHT22;39163;52.696;6.758;2024-01-15T02:25:20;1.20;99.90
53274;DHT22;39163;52.696;6.758;2024-01-15T02:27:48;1.20;99.90
53274;DHT22;39163;52.696;6.758;2024-01-15T02:30:15;1.30;99.90
53274;DHT22;39163;52.696;6.758;2024-01-15T02:32:43;1.30;99.90
53274;DHT22;39163;52.696;6.758;2024-01-15T02:35:10;1.30;99.90
53274;DHT22;39163;52.696;6.758;2024-01-15T02:37:37;1.40;99.90
53274;DHT22;39163;52.696;6.758;2024-01-15T02:40:05;1.40;99.90
53274;DHT22;39163;52.696;6.758;2024-01-15T02:42:33;1.40;99.90
53274;DHT22;39163;52.696;6.758;2024-01-15T02:45:00;1.50;99.90
53274;DHT22;39163;52.696;6.758;2024-01-15T02:47:27;1.50;99.90
53274;DHT22;39163;52.696;6.758;2024-01-15T02:49:54;1.60;99.90
53274;DHT22;39163;52.696;6.758;2024-01-15T02:52:21;1.60;99.90
53274;DHT22;39163;52.696;6.758;2024-01-15T02:54:48;1.60;99.90
53274;DHT22;39163;52.696;6.758;2024-01-15T02:57:15;1.70;99.90
53274;DHT22;39163;52.696;6.758;2024-01-15T02:59:43;1.70;99.90
53274;DHT22;39163;52.696;6.758;2024-01-15T03:02:10;1.70;99.90
53274;DHT22;39163;52.696;6.758;2024-01-15T03:04:37;1.70;99.90
53274;DHT22;39163;52.696;6.758;2024-01-15T03:07:04;1.60;99.90
53274;DHT22;39163;52.696;6.758;2024-01-15T03:09:31;1.60;99.90
53274;DHT22;39163;52.696;6.758;2024-01-15T03:11:58;1.60;99.90
53274;DHT22;39163;52.696;6.758;2024-01-15T03:14:25;1.60;99.90
53274;DHT22;39163;52.696;6.758;2024-01-15T03:16:53;1.60;99.90
53274;DHT22;39163;52.696;6.758;2024-01-15T03:19:20;1.60;99.90
53274;DHT22;39163;52.696;6.758;2024-01-15T03:21:47;1.60;99.90
53274;DHT22;39163;52.696;6.758;2024-01-15T03:24:14;1.60;99.90
53274;DHT22;39163;52.696;6.758;2024-01-15T03:26:41;1.60;99.90
53274;DHT22;39163;52.696;6.758;2024-01-15T03:29:08;1.60;99.90
53274;DHT22;39163;52.696;6.758;2024-01-15T03:31:35;1.60;99.90
53274;DHT22;39163;52.696;6.758;2024-01-15T03:34:03;1.60;99.90
53274;DHT22;39163;52.696;6.758;2024-01-15T03:36:30;1.50;99.90
53274;DHT22;39163;52.696;6.758;2024-01-15T03:38:57;1.50;99.90
53274;DHT22;39163;52.696;6.758;2024-01-15T03:41:24;1.50;99.90
53274;DHT22;39163;52.696;6.758;2024-01-15T03:43:51;1.40;99.90
53274;DHT22;39163;52.696;6.758;2024-01-15T03:46:18;1.40;99.90
53274;DHT22;39163;52.696;6.758;2024-01-15T03:48:45;1.30;99.90
53274;DHT22;39163;52.696;6.758;2024-01-15T03:51:16;1.40;99.90
53274;DHT22;39163;52.696;6.758;2024-01-15T03:53:44;1.30;99.90
53274;DHT22;39163;52.696;6.758;2024-01-15T03:56:11;1.30;99.90
53274;DHT22;39163;52.696;6.758;2024-01-15T03:58:38;1.30;99.90
53274;DHT22;39163;52.696;6.758;2024-01-15T04:01:08;1.30;99.90
53274;DHT22;39163;52.696;6.758;2024-01-15T04:03:35;1.40;99.90
53274;DHT22;39163;52.696;6.758;2024-01-15T04:06:02;1.50;99.90
53274;DHT22;39163;52.696;6.758;2024-01-15T04:08:31;1.50;99.90
53274;DHT22;39163;52.696;6.758;2024-01-15T04:10:58;1.50;99.90
53274;DHT22;39163;52.696;6.758;2024-01-15T04:13:25;1.60;99.90
53274;DHT22;39163;52.696;6.758;2024-01-15T04:15:52;1.50;99.90
53274;DHT22;39163;52.696;6.758;2024-01-15T04:18:18;1.50;99.90
53274;DHT22;39163;52.696;6.758;2024-01-15T04:20:45;1.50;99.90
53274;DHT22;39163;52.696;6.758;2024-01-15T04:23:12;1.50;99.90
53274;DHT22;39163;52.696;6.758;2024-01-15T04:25:41;1.50;99.90
53274;DHT22;39163;52.696;6.758;2024-01-15T04:28:08;1.50;99.90
53274;DHT22;39163;52.696;6.758;2024-01-15T04:30:35;1.50;99.90
53274;DHT22;39163;52.696;6.758;2024-01-15T04:33:02;1.50;99.90
53274;DHT22;39163;52.696;6.758;2024-01-15T04:35:30;1.50;99.90
53274;DHT22;39163;52.696;6.758;2024-01-15T04:37:57;1.60;99.90
53274;DHT22;39163;52.696;6.758;2024-01-15T04:40:24;1.50;99.90
53274;DHT22;39163;52.696;6.758;2024-01-15T04:42:54;1.60;99.90
53274;DHT22;39163;52.696;6.758;2024-01-15T04:45:21;1.60;99.90
53274;DHT22;39163;52.696;6.758;2024-01-15T04:47:53;1.60;99.90
53274;DHT22;39163;52.696;6.758;2024-01-15T04:50:21;1.70;99.90
53274;DHT22;39163;52.696;6.758;2024-01-15T04:52:48;1.60;99.90
53274;DHT22;39163;52.696;6.758;2024-01-15T04:55:15;1.60;99.90
53274;DHT22;39163;52.696;6.758;2024-01-15T04:57:42;1.60;99.90
53274;DHT22;39163;52.696;6.758;2024-01-15T05:00:12;1.60;99.90
53274;DHT22;39163;52.696;6.758;2024-01-15T05:02:39;1.50;99.90
53274;DHT22;39163;52.696;6.758;2024-01-15T05:05:06;1.50;99.90
53274;DHT22;39163;52.696;6.758;2024-01-15T05:07:33;1.50;99.90
53274;DHT22;39163;52.696;6.758;2024-01-15T05:10:00;1.60;99.90
53274;DHT22;39163;52.696;6.758;2024-01-15T05:12:27;1.50;99.90
53274;DHT22;39163;52.696;6.758;2024-01-15T05:14:54;1.50;99.90
53274;DHT22;39163;52.696;6.758;2024-01-15T05:17:22;1.60;99.90
53274;DHT22;39163;52.696;6.758;2024-01-15T05:19:49;1.50;99.90
53274;DHT22;39163;52.696;6.758;2024-01-15T05:22:16;1.60;99.90
53274;DHT22;39163;52.696;6.758;2024-01-15T05:24:43;1.60;99.90
53274;DHT22;39163;52.696;6.758;2024-01-15T05:27:10;1.60;99.90
53274;DHT22;39163;52.696;6.758;2024-01-15T05:29:37;1.60;99.90
53274;DHT22;39163;52.696;6.758;2024-01-15T05:32:04;1.60;99.90
53274;DHT22;39163;52.696;6.758;2024-01-15T05:34:32;1.50;99.90
53274;DHT22;39163;52.696;6.758;2024-01-15T05:36:59;1.50;99.90
53274;DHT22;39163;52.696;6.758;2024-01-15T05:39:26;1.40;99.90
53274;DHT22;39163;52.696;6.758;2024-01-15T05:41:53;1.30;99.90
53274;DHT22;39163;52.696;6.758;2024-01-15T05:44:20;1.30;99.90
53274;DHT22;39163;52.696;6.758;2024-01-15T05:46:47;1.20;99.90
53274;DHT22;39163;52.696;6.758;2024-01-15T05:49:14;1.20;99.90
53274;DHT22;39163;52.696;6.758;2024-01-15T05:51:43;1.20;99.90
53274;DHT22;39163;52.696;6.758;2024-01-15T05:54:10;1.10;99.90
53274;DHT22;39163;52.696;6.758;2024-01-15T05:56:37;1.10;99.90
53274;DHT22;39163;52.696;6.758;2024-01-15T05:59:04;1.10;99.90
53274;DHT22;39163;52.696;6.758;2024-01-15T06:01:31;1.10;99.90
53274;DHT22;39163;52.696;6.758;2024-01-15T06:03:58;1.20;99.90
53274;DHT22;39163;52.696;6.758;2024-01-15T06:06:25;1.20;99.90
53274;DHT22;39163;52.696;6.758;2024-01-15T06:08:53;1.20;99.90
53274;DHT22;39163;52.696;6.758;2024-01-15T06:11:20;1.30;99.90
53274;DHT22;39163;52.696;6.758;2024-01-15T06:13:47;1.30;99.90
53274;DHT22;39163;52.696;6.758;2024-01-15T06:16:14;1.30;99.90
53274;DHT22;39163;52.696;6.758;2024-01-15T06:18:42;1.30;99.90
53274;DHT22;39163;52.696;6.758;2024-01-15T06:21:09;1.30;99.90
53274;DHT22;39163;52.696;6.758;2024-01-15T06:23:38;1.30;99.90
53274;DHT22;39163;52.696;6.758;2024-01-15T06:26:06;1.30;99.90
53274;DHT22;39163;52.696;6.758;2024-01-15T06:28:33;1.30;99.90
53274;DHT22;39163;52.696;6.758;2024-01-15T06:31:00;1.20;99.90
53274;DHT22;39163;52.696;6.758;2024-01-15T06:33:27;1.20;99.90
53274;DHT22;39163;52.696;6.758;2024-01-15T06:35:54;1.20;99.90
53274;DHT22;39163;52.696;6.758;2024-01-15T06:38:22;1.20;99.90
53274;DHT22;39163;52.696;6.758;2024-01-15T06:40:49;1.20;99.90
53274;DHT22;39163;52.696;6.758;2024-01-15T06:43:18;1.20;99.90
53274;DHT22;39163;52.696;6.758;2024-01-15T06:45:45;1.20;99.90
53274;DHT22;39163;52.696;6.758;2024-01-15T06:48:12;1.20;99.90
53274;DHT22;39163;52.696;6.758;2024-01-15T06:50:40;1.20;99.90
53274;DHT22;39163;52.696;6.758;2024-01-15T06:53:07;1.20;99.90
53274;DHT22;39163;52.696;6.758;2024-01-15T06:55:34;1.20;99.90
53274;DHT22;39163;52.696;6.758;2024-01-15T06:58:01;1.20;99.90
53274;DHT22;39163;52.696;6.758;2024-01-15T07:00:29;1.10;99.90
53274;DHT22;39163;52.696;6.758;2024-01-15T07:02:56;1.10;99.90
53274;DHT22;39163;52.696;6.758;2024-01-15T07:05:23;1.00;99.90
53274;DHT22;39163;52.696;6.758;2024-01-15T07:07:50;1.00;99.90
53274;DHT22;39163;52.696;6.758;2024-01-15T07:10:17;1.00;99.90
53274;DHT22;39163;52.696;6.758;2024-01-15T07:12:44;0.90;99.90
53274;DHT22;39163;52.696;6.758;2024-01-15T07:15:11;0.90;99.90
53274;DHT22;39163;52.696;6.758;2024-01-15T07:17:40;0.80;99.90
53274;DHT22;39163;52.696;6.758;2024-01-15T07:20:08;0.80;99.90
53274;DHT22;39163;52.696;6.758;2024-01-15T07:22:36;0.80;99.90
53274;DHT22;39163;52.696;6.758;2024-01-15T07:25:03;0.70;99.90
53274;DHT22;39163;52.696;6.758;2024-01-15T07:27:32;0.70;99.90
53274;DHT22;39163;52.696;6.758;2024-01-15T07:29:59;0.80;99.90
53274;DHT22;39163;52.696;6.758;2024-01-15T07:32:26;0.80;99.90
53274;DHT22;39163;52.696;6.758;2024-01-15T07:34:54;0.80;99.90
53274;DHT22;39163;52.696;6.758;2024-01-15T07:37:21;0.90;99.90
53274;DHT22;39163;52.696;6.758;2024-01-15T07:39:48;0.90;99.90
53274;DHT22;39163;52.696;6.758;2024-01-15T07:42:16;1.00;99.90
53274;DHT22;39163;52.696;6.758;2024-01-15T07:44:42;1.00;99.90
53274;DHT22;39163;52.696;6.758;2024-01-15T07:47:10;1.00;99.90
53274;DHT22;39163;52.696;6.758;2024-01-15T07:49:37;1.00;99.90
53274;DHT22;39163;52.696;6.758;2024-01-15T07:52:06;1.00;99.90
53274;DHT22;39163;52.696;6.758;2024-01-15T07:54:33;1.00;99.90
53274;DHT22;39163;52.696;6.758;2024-01-15T07:57:01;1.00;99.90
53274;DHT22;39163;52.696;6.758;2024-01-15T07:59:29;0.90;99.90
53274;DHT22;39163;52.696;6.758;2024-01-15T08:01:56;0.90;99.90
53274;DHT22;39163;52.696;6.758;2024-01-15T08:04:22;0.80;99.90
53274;DHT22;39163;52.696;6.758;2024-01-15T08:06:49;0.80;99.90
53274;DHT22;39163;52.696;6.758;2024-01-15T08:09:18;0.80;99.90
53274;DHT22;39163;52.696;6.758;2024-01-15T08:11:45;0.80;99.90
53274;DHT22;39163;52.696;6.758;2024-01-15T08:14:12;0.80;99.90
53274;DHT22;39163;52.696;6.758;2024-01-15T08:16:39;0.80;99.90
53274;DHT22;39163;52.696;6.758;2024-01-15T08:19:06;0.80;99.90
53274;DHT22;39163;52.696;6.758;2024-01-15T08:21:33;0.90;99.90
53274;DHT22;39163;52.696;6.758;2024-01-15T08:24:01;0.90;99.90
53274;DHT22;39163;52.696;6.758;2024-01-15T08:26:30;1.00;99.90
53274;DHT22;39163;52.696;6.758;2024-01-15T08:28:57;1.00;99.90
53274;DHT22;39163;52.696;6.758;2024-01-15T08:31:24;1.00;99.90
53274;DHT22;39163;52.696;6.758;2024-01-15T08:33:51;1.00;99.90
53274;DHT22;39163;52.696;6.758;2024-01-15T08:36:18;1.00;99.90
53274;DHT22;39163;52.696;6.758;2024-01-15T08:38:45;1.10;99.90
53274;DHT22;39163;52.696;6.758;2024-01-15T08:41:13;1.20;99.90
53274;DHT22;39163;52.696;6.758;2024-01-15T08:43:41;1.30;99.90
53274;DHT22;39163;52.696;6.758;2024-01-15T08:46:08;1.30;99.90
53274;DHT22;39163;52.696;6.758;2024-01-15T08:48:36;1.40;99.90
53274;DHT22;39163;52.696;6.758;2024-01-15T08:51:03;1.50;99.90
53274;DHT22;39163;52.696;6.758;2024-01-15T08:53:30;1.60;99.90
53274;DHT22;39163;52.696;6.758;2024-01-15T08:55:58;1.80;99.90
53274;DHT22;39163;52.696;6.758;2024-01-15T08:58:25;1.90;99.90
53274;DHT22;39163;52.696;6.758;2024-01-15T09:00:54;2.00;99.90
53274;DHT22;39163;52.696;6.758;2024-01-15T09:03:20;1.90;99.90
53274;DHT22;39163;52.696;6.758;2024-01-15T09:05:47;1.90;99.90
53274;DHT22;39163;52.696;6.758;2024-01-15T09:08:15;1.80;99.90
53274;DHT22;39163;52.696;6.758;2024-01-15T09:10:42;1.90;99.90
53274;DHT22;39163;52.696;6.758;2024-01-15T09:13:09;2.00;99.90
53274;DHT22;39163;52.696;6.758;2024-01-15T09:15:36;2.00;99.90
53274;DHT22;39163;52.696;6.758;2024-01-15T09:18:05;2.10;99.90
53274;DHT22;39163;52.696;6.758;2024-01-15T09:20:32;2.20;99.90
53274;DHT22;39163;52.696;6.758;2024-01-15T09:22:59;2.30;99.90
53274;DHT22;39163;52.696;6.758;2024-01-15T09:25:26;2.10;99.90
53274;DHT22;39163;52.696;6.758;2024-01-15T09:27:53;2.10;99.90
53274;DHT22;39163;52.696;6.758;2024-01-15T09:30:20;2.10;99.90
53274;DHT22;39163;52.696;6.758;2024-01-15T09:32:47;2.10;99.90
53274;DHT22;39163;52.696;6.758;2024-01-15T09:35:15;2.10;99.90
53274;DHT22;39163;52.696;6.758;2024-01-15T09:37:42;2.20;99.90
53274;DHT22;39163;52.696;6.758;2024-01-15T09:40:12;2.30;99.90
53274;DHT22;39163;52.696;6.758;2024-01-15T09:42:40;2.50;99.90
53274;DHT22;39163;52.696;6.758;2024-01-15T09:45:08;2.60;99.90
53274;DHT22;39163;52.696;6.758;2024-01-15T09:47:36;2.50;99.90
53274;DHT22;39163;52.696;6.758;2024-01-15T09:50:04;2.30;99.90
53274;DHT22;39163;52.696;6.758;2024-01-15T09:52:34;2.20;99.90
53274;DHT22;39163;52.696;6.758;2024-01-15T09:55:02;2.10;99.90
53274;DHT22;39163;52.696;6.758;2024-01-15T09:57:31;2.00;99.90
53274;DHT22;39163;52.696;6.758;2024-01-15T09:59:59;1.90;99.90
53274;DHT22;39163;52.696;6.758;2024-01-15T10:02:29;2.00;99.90
53274;DHT22;39163;52.696;6.758;2024-01-15T10:04:57;2.10;99.90
53274;DHT22;39163;52.696;6.758;2024-01-15T10:07:25;2.10;99.90
53274;DHT22;39163;52.696;6.758;2024-01-15T10:09:55;2.10;99.90
53274;DHT22;39163;52.696;6.758;2024-01-15T10:12:22;2.10;99.90
53274;DHT22;39163;52.696;6.758;2024-01-15T10:14:50;2.10;99.90
53274;DHT22;39163;52.696;6.758;2024-01-15T10:17:17;2.20;99.90
53274;DHT22;39163;52.696;6.758;2024-01-15T10:19:45;2.30;99.90
53274;DHT22;39163;52.696;6.758;2024-01-15T10:22:13;2.40;99.90
53274;DHT22;39163;52.696;6.758;2024-01-15T10:24:41;2.50;99.90
53274;DHT22;39163;52.696;6.758;2024-01-15T10:27:10;2.70;99.90
53274;DHT22;39163;52.696;6.758;2024-01-15T10:29:37;2.90;99.90
53274;DHT22;39163;52.696;6.758;2024-01-15T10:32:06;3.20;99.90
53274;DHT22;39163;52.696;6.758;2024-01-15T10:34:37;3.60;99.90
53274;DHT22;39163;52.696;6.758;2024-01-15T10:37:07;3.60;99.90
53274;DHT22;39163;52.696;6.758;2024-01-15T10:39:34;3.50;99.90
53274;DHT22;39163;52.696;6.758;2024-01-15T10:42:02;3.40;99.90
53274;DHT22;39163;52.696;6.758;2024-01-15T10:44:30;3.50;99.90
53274;DHT22;39163;52.696;6.758;2024-01-15T10:46:57;3.30;99.90
53274;DHT22;39163;52.696;6.758;2024-01-15T10:49:24;3.20;99.90
53274;DHT22;39163;52.696;6.758;2024-01-15T10:51:53;3.10;99.90
53274;DHT22;39163;52.696;6.758;2024-01-15T10:54:21;2.90;99.90
53274;DHT22;39163;52.696;6.758;2024-01-15T10:56:50;2.90;99.90
53274;DHT22;39163;52.696;6.758;2024-01-15T10:59:20;2.80;99.90
53274;DHT22;39163;52.696;6.758;2024-01-15T11:01:50;2.70;99.90
53274;DHT22;39163;52.696;6.758;2024-01-15T11:04:19;2.80;99.90
53274;DHT22;39163;52.696;6.758;2024-01-15T11:06:50;2.90;99.90
53274;DHT22;39163;52.696;6.758;2024-01-15T11:09:17;3.00;99.90
53274;DHT22;39163;52.696;6.758;2024-01-15T11:11:45;2.90;99.90
53274;DHT22;39163;52.696;6.758;2024-01-15T11:14:33;2.90;99.90
53274;DHT22;39163;52.696;6.758;2024-01-15T11:17:02;2.80;99.90
53274;DHT22;39163;52.696;6.758;2024-01-15T11:19:36;2.70;99.90
53274;DHT22;39163;52.696;6.758;2024-01-15T11:22:03;2.80;99.90
53274;DHT22;39163;52.696;6.758;2024-01-15T11:24:36;2.80;99.90
53274;DHT22;39163;52.696;6.758;2024-01-15T11:27:03;3.00;99.90
53274;DHT22;39163;52.696;6.758;2024-01-15T11:29:32;3.00;99.90
53274;DHT22;39163;52.696;6.758;2024-01-15T11:32:03;2.90;99.90
53274;DHT22;39163;52.696;6.758;2024-01-15T11:34:51;2.90;99.90
53274;DHT22;39163;52.696;6.758;2024-01-15T11:37:19;2.80;99.90
53274;DHT22;39163;52.696;6.758;2024-01-15T11:39:47;2.70;99.90
53274;DHT22;39163;52.696;6.758;2024-01-15T11:42:15;2.70;99.90
53274;DHT22;39163;52.696;6.758;2024-01-15T11:44:44;2.60;99.90
53274;DHT22;39163;52.696;6.758;2024-01-15T11:47:13;2.60;99.90
53274;DHT22;39163;52.696;6.758;2024-01-15T11:49:59;2.60;99.90
53274;DHT22;39163;52.696;6.758;2024-01-15T11:52:33;2.70;99.90
53274;DHT22;39163;52.696;6.758;2024-01-15T11:55:06;2.80;99.90
53274;DHT22;39163;52.696;6.758;2024-01-15T11:57:41;2.90;99.90
53274;DHT22;39163;52.696;6.758;2024-01-15T12:00:11;2.90;99.90
53274;DHT22;39163;52.696;6.758;2024-01-15T12:02:40;2.80;99.90
53274;DHT22;39163;52.696;6.758;2024-01-15T12:05:08;2.70;99.90
53274;DHT22;39163;52.696;6.758;2024-01-15T12:07:36;2.60;99.90
53274;DHT22;39163;52.696;6.758;2024-01-15T12:10:08;2.60;99.90
53274;DHT22;39163;52.696;6.758;2024-01-15T12:12:44;2.60;99.90
53274;DHT22;39163;52.696;6.758;2024-01-15T12:15:14;2.70;99.90
53274;DHT22;39163;52.696;6.758;2024-01-15T12:17:43;2.70;99.90
53274;DHT22;39163;52.696;6.758;2024-01-15T12:20:11;2.70;99.90
53274;DHT22;39163;52.696;6.758;2024-01-15T12:22:38;2.70;99.90
53274;DHT22;39163;52.696;6.758;2024-01-15T12:25:06;2.70;99.90
53274;DHT22;39163;52.696;6.758;2024-01-15T12:27:33;2.70;99.90
53274;DHT22;39163;52.696;6.758;2024-01-15T12:30:00;2.60;99.90
53274;DHT22;39163;52.696;6.758;2024-01-15T12:32:27;2.50;99.90
53274;DHT22;39163;52.696;6.758;2024-01-15T12:34:56;2.30;99.90
53274;DHT22;39163;52.696;6.758;2024-01-15T12:37:24;2.20;99.90
53274;DHT22;39163;52.696;6.758;2024-01-15T12:39:52;2.00;99.90
53274;DHT22;39163;52.696;6.758;2024-01-15T12:42:21;1.80;99.90
53274;DHT22;39163;52.696;6.758;2024-01-15T12:44:48;1.70;99.90
53274;DHT22;39163;52.696;6.758;2024-01-15T12:47:15;1.70;99.90
53274;DHT22;39163;52.696;6.758;2024-01-15T12:49:46;1.70;99.90
53274;DHT22;39163;52.696;6.758;2024-01-15T12:52:19;1.70;99.90
53274;DHT22;39163;52.696;6.758;2024-01-15T12:54:47;1.80;99.90
53274;DHT22;39163;52.696;6.758;2024-01-15T12:57:14;1.80;99.90
53274;DHT22;39163;52.696;6.758;2024-01-15T12:59:41;1.80;99.90
53274;DHT22;39163;52.696;6.758;2024-01-15T13:02:08;1.80;99.90
53274;DHT22;39163;52.696;6.758;2024-01-15T13:04:35;1.80;99.90
53274;DHT22;39163;52.696;6.758;2024-01-15T13:07:02;1.90;99.90
53274;DHT22;39163;52.696;6.758;2024-01-15T13:09:31;1.90;99.90
53274;DHT22;39163;52.696;6.758;2024-01-15T13:11:58;2.00;99.90
53274;DHT22;39163;52.696;6.758;2024-01-15T13:14:25;2.00;99.90
53274;DHT22;39163;52.696;6.758;2024-01-15T13:16:52;2.10;99.90
53274;DHT22;39163;52.696;6.758;2024-01-15T13:19:19;2.00;99.90
53274;DHT22;39163;52.696;6.758;2024-01-15T13:21:47;2.10;99.90
53274;DHT22;39163;52.696;6.758;2024-01-15T13:24:14;2.10;99.90
53274;DHT22;39163;52.696;6.758;2024-01-15T13:26:42;2.10;99.90
53274;DHT22;39163;52.696;6.758;2024-01-15T13:29:09;2.20;99.90
53274;DHT22;39163;52.696;6.758;2024-01-15T13:31:36;2.30;99.90
53274;DHT22;39163;52.696;6.758;2024-01-15T13:34:03;2.30;99.90
53274;DHT22;39163;52.696;6.758;2024-01-15T13:36:30;2.30;99.90
53274;DHT22;39163;52.696;6.758;2024-01-15T13:38:57;2.20;99.90
53274;DHT22;39163;52.696;6.758;2024-01-15T13:41:24;2.20;99.90
53274;DHT22;39163;52.696;6.758;2024-01-15T13:43:55;2.20;99.90
53274;DHT22;39163;52.696;6.758;2024-01-15T13:46:24;2.30;99.90
53274;DHT22;39163;52.696;6.758;2024-01-15T13:48:52;2.40;99.90
53274;DHT22;39163;52.696;6.758;2024-01-15T13:51:19;2.50;99.90
53274;DHT22;39163;52.696;6.758;2024-01-15T13:53:47;2.50;99.90
53274;DHT22;39163;52.696;6.758;2024-01-15T13:56:15;2.50;99.90
53274;DHT22;39163;52.696;6.758;2024-01-15T13:58:42;2.50;99.90
53274;DHT22;39163;52.696;6.758;2024-01-15T14:01:11;2.50;99.90
53274;DHT22;39163;52.696;6.758;2024-01-15T14:03:38;2.50;99.90
53274;DHT22;39163;52.696;6.758;2024-01-15T14:06:05;2.50;99.90
53274;DHT22;39163;52.696;6.758;2024-01-15T14:08:34;2.40;99.90
53274;DHT22;39163;52.696;6.758;2024-01-15T14:11:02;2.40;99.90
53274;DHT22;39163;52.696;6.758;2024-01-15T14:13:29;2.40;99.90
53274;DHT22;39163;52.696;6.758;2024-01-15T14:15:56;2.40;99.90
53274;DHT22;39163;52.696;6.758;2024-01-15T14:18:24;2.40;99.90
53274;DHT22;39163;52.696;6.758;2024-01-15T14:20:51;2.40;99.90
53274;DHT22;39163;52.696;6.758;2024-01-15T14:23:19;2.50;99.90
53274;DHT22;39163;52.696;6.758;2024-01-15T14:25:46;2.50;99.90
53274;DHT22;39163;52.696;6.758;2024-01-15T14:28:13;2.50;99.90
53274;DHT22;39163;52.696;6.758;2024-01-15T14:30:40;2.50;99.90
53274;DHT22;39163;52.696;6.758;2024-01-15T14:33:06;2.60;99.90
53274;DHT22;39163;52.696;6.758;2024-01-15T14:35:35;2.70;99.90
53274;DHT22;39163;52.696;6.758;2024-01-15T14:38:02;2.70;99.90
53274;DHT22;39163;52.696;6.758;2024-01-15T14:40:29;2.70;99.90
53274;DHT22;39163;52.696;6.758;2024-01-15T14:42:56;2.70;99.90
53274;DHT22;39163;52.696;6.758;2024-01-15T14:45:23;2.70;99.90
53274;DHT22;39163;52.696;6.758;2024-01-15T14:47:52;2.70;99.90
53274;DHT22;39163;52.696;6.758;2024-01-15T14:50:20;2.80;99.90
53274;DHT22;39163;52.696;6.758;2024-01-15T14:52:48;2.90;99.90
53274;DHT22;39163;52.696;6.758;2024-01-15T14:55:15;2.80;99.90
53274;DHT22;39163;52.696;6.758;2024-01-15T14:57:42;2.70;99.90
53274;DHT22;39163;52.696;6.758;2024-01-15T15:00:10;2.60;99.90
53274;DHT22;39163;52.696;6.758;2024-01-15T15:02:39;2.40;99.90
53274;DHT22;39163;52.696;6.758;2024-01-15T15:05:06;2.30;99.90
53274;DHT22;39163;52.696;6.758;2024-01-15T15:07:34;2.20;99.90
53274;DHT22;39163;52.696;6.758;2024-01-15T15:10:03;2.10;99.90
53274;DHT22;39163;52.696;6.758;2024-01-15T15:12:31;2.00;99.90
53274;DHT22;39163;52.696;6.758;2024-01-15T15:14:58;1.90;99.90
53274;DHT22;39163;52.696;6.758;2024-01-15T15:17:25;1.80;99.90
53274;DHT22;39163;52.696;6.758;2024-01-15T15:19:52;1.80;99.90
53274;DHT22;39163;52.696;6.758;2024-01-15T15:22:21;1.70;99.90
53274;DHT22;39163;52.696;6.758;2024-01-15T15:24:48;1.70;99.90
53274;DHT22;39163;52.696;6.758;2024-01-15T15:27:16;1.70;99.90
53274;DHT22;39163;52.696;6.758;2024-01-15T15:29:43;1.70;99.90
53274;DHT22;39163;52.696;6.758;2024-01-15T15:32:10;1.70;99.90
53274;DHT22;39163;52.696;6.758;2024-01-15T15:34:38;1.70;99.90
53274;DHT22;39163;52.696;6.758;2024-01-15T15:37:05;1.70;99.90
53274;DHT22;39163;52.696;6.758;2024-01-15T15:39:32;1.80;99.90
53274;DHT22;39163;52.696;6.758;2024-01-15T15:41:59;1.90;99.90
53274;DHT22;39163;52.696;6.758;2024-01-15T15:44:27;2.00;99.90
53274;DHT22;39163;52.696;6.758;2024-01-15T15:46:54;1.90;99.90